Airfield :
LOGIN :

Register | Disclaimer

   EN    FR    IT 

 










Legend :    VFR   Marginal VFR   IFR   Intensive IFR   Very Intensive IFR
Visi :
Ceiling :
>= 8 km
>= 3000ft
5 to 8 km
1000 to 3000 ft
1500m to 5 km
500 to 1000 ft
800 to 1500m
200 to 500 ft
< 800m
< 200 ft
Symbols :   Thunderstorms  Fog  Heavy snow  Heavy precipitations  Wind > 20 kt
SIGMETs :     Misc.  Thunderstorms  Icing  Turbulence  Mountain Waves  Volcanic Ashes






- Airport Elevation : 28 ft
- IATA code : SOZ


LFKS - Solenzara

CURRENT METAR :
  • 220500Z AUTO 27005KT 240V300 9999 BKN074/// BKN094/// ///CB 10/07 Q1011

EXPIRED METARs :
  • 220430Z AUTO 27006KT 9999 FEW074/// SCT100/// ///CB 10/07 Q1010
  • 220400Z AUTO 27006KT 9999 ///CB 10/07 Q1010
  • 220330Z AUTO 28006KT 9999 ///TCU 10/07 Q1010
  • 220300Z AUTO 27005KT 240V310 CAVOK 10/07 Q1010
  • 220230Z AUTO 27006KT CAVOK 10/07 Q1010

TAF TAF LFKS
Valid from the 21 at 15:00 until the 22 at 15:00 UTC


211400Z 2115/2215 16010KT 9999 FEW040
BECMG 2116/2118 27005KT



MET'MAP, your aeronautical weather chart ! - Copyright ORBIFLY December 2007 - Disclaimer

ORBIFLY MET'MAP TEAM :

Programming & Development : Alexandra Zaïnal
Concept & Development : Baudouin d'Aumeries
Co-Development & Prog : Marc-Olivier Méhu
Technical & hardware support : Manuel Goepfert

Contact : metmap@orbifly.com




SOURCES & CREDITS :

   NOAA